createdAt,value
2023-01-19T00:00:52.655Z,98447.09
2023-01-19T00:03:21.998Z,98440.72
2023-01-19T00:05:49.898Z,98447.75
2023-01-19T00:08:17.949Z,98446.72
2023-01-19T00:10:47.099Z,98440.13
2023-01-19T00:13:15.953Z,98437.63
2023-01-19T00:15:44.271Z,98440.59
2023-01-19T00:18:12.286Z,98456.31
2023-01-19T00:20:41.887Z,98451.28
2023-01-19T00:23:09.809Z,98438.88
2023-01-19T00:25:42.501Z,98431.72
2023-01-19T00:28:11.161Z,98446.63
2023-01-19T00:30:39.311Z,98427.28
2023-01-19T00:33:07.411Z,98439.91
2023-01-19T00:35:35.376Z,98448.31
2023-01-19T00:38:05.016Z,98436.84
2023-01-19T00:40:35.240Z,98434.66
2023-01-19T00:43:04.328Z,98421.50
2023-01-19T00:45:32.418Z,98421.13
2023-01-19T00:48:00.432Z,98417.72
2023-01-19T00:50:29.554Z,98437.63
2023-01-19T00:52:58.532Z,98427.16
2023-01-19T00:55:29.337Z,98413.19
2023-01-19T00:57:57.464Z,98404.53
2023-01-19T01:00:25.661Z,98440.56
2023-01-19T01:02:54.247Z,98433.88
2023-01-19T01:08:07.857Z,98427.38
2023-01-19T01:10:37.199Z,98423.53
2023-01-19T01:13:20.877Z,98413.75
2023-01-19T01:15:51.113Z,98412.59
2023-01-19T01:18:19.154Z,98404.19
2023-01-19T01:20:47.095Z,98418.72
2023-01-19T01:23:15.226Z,98420.13
2023-01-19T01:25:44.718Z,98431.94
2023-01-19T01:28:12.790Z,98429.91
2023-01-19T01:30:41.329Z,98435.22
2023-01-19T01:33:09.704Z,98432.06
2023-01-19T01:35:37.615Z,98412.81
2023-01-19T01:38:05.673Z,98444.78
2023-01-19T01:40:33.597Z,98426.03
2023-01-19T01:43:03.623Z,98431.03
2023-01-19T01:45:33.020Z,98425.00
2023-01-19T01:48:03.889Z,98423.53
2023-01-19T01:50:34.143Z,98424.88
2023-01-19T01:53:06.941Z,98430.91
2023-01-19T01:55:38.131Z,98439.34
2023-01-19T01:58:09.723Z,98420.00
2023-01-19T02:00:52.313Z,98431.94
2023-01-19T02:03:20.508Z,98434.53
2023-01-19T02:05:48.431Z,98419.66
2023-01-19T02:08:36.928Z,98432.84
2023-01-19T02:11:22.321Z,98422.94
2023-01-19T02:13:52.175Z,98413.50
2023-01-19T02:16:20.298Z,98416.25
2023-01-19T02:18:48.390Z,98408.41
2023-01-19T02:21:19.123Z,98424.66
2023-01-19T02:23:50.384Z,98424.56
2023-01-19T02:26:20.637Z,98445.16
2023-01-19T02:28:51.117Z,98429.09
2023-01-19T02:31:19.500Z,98420.47
2023-01-19T02:33:47.775Z,98422.06
2023-01-19T02:36:17.036Z,98420.66
2023-01-19T02:38:46.302Z,98411.00
2023-01-19T02:41:18.408Z,98424.88
2023-01-19T02:43:47.393Z,98421.56
2023-01-19T02:46:15.754Z,98431.13
2023-01-19T02:48:43.978Z,98425.53
2023-01-19T02:51:14.225Z,98421.00
2023-01-19T02:53:51.264Z,98414.41
2023-01-19T02:56:37.305Z,98391.66
2023-01-19T02:59:07.565Z,98423.97
2023-01-19T03:01:41.512Z,98422.03
2023-01-19T03:04:13.623Z,98426.69
2023-01-19T03:06:46.088Z,98419.28
2023-01-19T03:09:17.289Z,98410.66
2023-01-19T03:11:51.662Z,98392.22
2023-01-19T03:14:24.794Z,98418.38
2023-01-19T03:16:56.165Z,98428.97
2023-01-19T03:19:27.343Z,98421.47
2023-01-19T03:21:59.365Z,98411.44
2023-01-19T03:24:30.952Z,98428.16
2023-01-19T03:27:02.987Z,98454.78
2023-01-19T03:29:34.921Z,98462.75
2023-01-19T03:32:04.379Z,98477.19
2023-01-19T03:34:32.690Z,98473.22
2023-01-19T03:37:04.109Z,98460.38
2023-01-19T03:39:32.607Z,98469.81
2023-01-19T03:42:04.375Z,98458.53
2023-01-19T03:44:33.588Z,98465.50
2023-01-19T03:47:02.174Z,98449.44
2023-01-19T03:49:31.789Z,98474.00
2023-01-19T03:52:00.338Z,98473.94
2023-01-19T03:54:28.355Z,98479.72
2023-01-19T03:56:56.299Z,98482.69
2023-01-19T03:59:25.841Z,98481.53
2023-01-19T04:01:53.801Z,98500.88
2023-01-19T04:04:22.248Z,98495.53
2023-01-19T04:06:50.091Z,98511.22
2023-01-19T04:09:19.362Z,98525.81
2023-01-19T04:11:48.265Z,98531.50
2023-01-19T04:14:16.226Z,98533.22
2023-01-19T04:16:45.666Z,98542.44
2023-01-19T04:19:13.837Z,98540.84
2023-01-19T04:21:41.828Z,98534.91
2023-01-19T04:24:10.941Z,98538.00
2023-01-19T04:26:38.969Z,98547.56
2023-01-19T04:29:06.836Z,98549.16
2023-01-19T04:31:35.842Z,98538.00
2023-01-19T04:34:05.373Z,98523.69
2023-01-19T04:36:33.234Z,98510.81
2023-01-19T04:39:01.345Z,98522.09
2023-01-19T04:41:31.102Z,98526.06
2023-01-19T04:43:59.128Z,98512.84
2023-01-19T04:49:27.081Z,98527.66
2023-01-19T04:51:55.475Z,98521.75
2023-01-19T04:54:24.293Z,98521.50
2023-01-19T04:56:52.493Z,98536.19
2023-01-19T04:59:21.712Z,98540.19
2023-01-19T05:01:50.050Z,98541.31
2023-01-19T05:04:18.308Z,98529.81
2023-01-19T05:06:47.856Z,98549.97
2023-01-19T05:09:16.024Z,98539.38
2023-01-19T05:11:44.178Z,98551.59
2023-01-19T05:14:12.368Z,98541.69
2023-01-19T05:16:40.729Z,98546.69
2023-01-19T05:19:09.261Z,98550.44
2023-01-19T05:21:37.520Z,98551.47
2023-01-19T05:24:07.670Z,98558.06
2023-01-19T05:26:35.701Z,98562.75
2023-01-19T05:29:03.659Z,98562.16
2023-01-19T05:31:32.211Z,98566.25
2023-01-19T05:34:00.578Z,98574.25
2023-01-19T05:36:28.591Z,98573.91
2023-01-19T05:38:56.772Z,98572.44
2023-01-19T05:41:26.316Z,98574.56
2023-01-19T05:43:54.970Z,98588.25
2023-01-19T05:46:23.120Z,98589.25
2023-01-19T05:48:51.360Z,98589.50
2023-01-19T05:51:19.625Z,98598.97
2023-01-19T05:53:47.519Z,98606.13
2023-01-19T05:56:15.892Z,98612.84
2023-01-19T05:58:45.239Z,98613.22
2023-01-19T06:01:15.485Z,98609.78
2023-01-19T06:03:43.538Z,98627.09
2023-01-19T06:06:11.827Z,98615.34
2023-01-19T06:08:40.057Z,98625.03
2023-01-19T06:11:08.865Z,98625.63
2023-01-19T06:13:36.870Z,98629.59
2023-01-19T06:16:06.852Z,98616.75
2023-01-19T06:18:35.090Z,98631.09
2023-01-19T06:21:04.759Z,98655.69
2023-01-19T06:23:33.686Z,98665.84
2023-01-19T06:26:01.853Z,98666.53
2023-01-19T06:28:30.095Z,98667.09
2023-01-19T06:30:58.372Z,98665.97
2023-01-19T06:33:29.117Z,98665.47
2023-01-19T06:35:57.654Z,98658.19
2023-01-19T06:38:25.790Z,98653.09
2023-01-19T06:40:54.987Z,98618.88
2023-01-19T06:43:23.493Z,98650.91
2023-01-19T06:45:51.616Z,98649.00
2023-01-19T06:48:19.734Z,98662.19
2023-01-19T06:50:49.770Z,98652.03
2023-01-19T06:53:20.011Z,98658.44
2023-01-19T06:55:47.892Z,98671.44
2023-01-19T06:58:15.842Z,98662.88
2023-01-19T07:00:44.300Z,98676.66
2023-01-19T07:03:19.389Z,98653.31
2023-01-19T07:05:50.044Z,98666.88
2023-01-19T07:08:18.156Z,98671.66
2023-01-19T07:11:24.659Z,98678.03
2023-01-19T07:13:34.556Z,98668.00
2023-01-19T07:16:06.658Z,98675.53
2023-01-19T07:18:35.334Z,98672.69
2023-01-19T07:21:05.105Z,98679.50
2023-01-19T07:23:33.144Z,98686.00
2023-01-19T07:26:02.359Z,98680.75
2023-01-19T07:28:31.183Z,98680.75
2023-01-19T07:30:59.747Z,98681.22
2023-01-19T07:33:28.367Z,98691.03
2023-01-19T07:35:56.551Z,98705.97
2023-01-19T07:38:26.093Z,98724.19
2023-01-19T07:41:01.088Z,98724.66
2023-01-19T07:43:29.245Z,98734.34
2023-01-19T07:45:57.771Z,98736.28
2023-01-19T07:48:25.773Z,98736.28
2023-01-19T07:50:53.873Z,98736.03
2023-01-19T07:53:22.582Z,98733.44
2023-01-19T07:55:56.994Z,98745.88
2023-01-19T07:58:25.031Z,98719.28
2023-01-19T08:00:53.354Z,98747.34
2023-01-19T08:03:21.438Z,98750.22
2023-01-19T08:05:51.218Z,98759.66
2023-01-19T08:08:19.454Z,98755.56
2023-01-19T08:10:50.648Z,98768.09
2023-01-19T08:13:20.601Z,98764.81
2023-01-19T08:15:50.496Z,98768.69
2023-01-19T08:18:18.978Z,98781.22
2023-01-19T08:23:55.995Z,98788.97
2023-01-19T08:26:28.512Z,98792.75
2023-01-19T08:28:58.987Z,98793.44
2023-01-19T08:31:27.487Z,98806.31
2023-01-19T08:33:56.131Z,98795.03
2023-01-19T08:36:25.217Z,98797.66
2023-01-19T08:38:53.410Z,98797.28
2023-01-19T08:41:22.610Z,98802.09
2023-01-19T08:43:50.853Z,98793.66
2023-01-19T08:46:22.094Z,98799.34
2023-01-19T08:48:50.750Z,98792.28
2023-01-19T08:51:18.929Z,98786.47
2023-01-19T08:53:46.989Z,98790.34
2023-01-19T08:56:15.298Z,98787.50
2023-01-19T08:58:43.843Z,98787.81
2023-01-19T09:01:17.110Z,98787.94
2023-01-19T09:03:46.974Z,98787.03
2023-01-19T09:06:17.445Z,98785.78
2023-01-19T09:08:45.558Z,98777.13
2023-01-19T09:11:14.840Z,98787.63
2023-01-19T09:13:42.976Z,98789.41
2023-01-19T09:16:12.786Z,98792.41
2023-01-19T09:18:41.377Z,98779.50
2023-01-19T09:21:10.744Z,98773.59
2023-01-19T09:23:38.806Z,98743.47
2023-01-19T09:26:07.847Z,98756.81
2023-01-19T09:28:35.982Z,98762.50
2023-01-19T09:31:06.116Z,98762.53
2023-01-19T09:33:34.696Z,98761.72
2023-01-19T09:36:03.202Z,98761.25
2023-01-19T09:38:33.154Z,98744.25
2023-01-19T09:41:01.931Z,98761.72
2023-01-19T09:43:38.931Z,98778.47
2023-01-19T09:46:11.016Z,98767.41
2023-01-19T09:48:46.005Z,98785.66
2023-01-19T09:51:17.129Z,98790.91
2023-01-19T09:53:52.648Z,98779.06
2023-01-19T09:56:21.921Z,98764.41
2023-01-19T09:58:51.284Z,98781.66
2023-01-19T10:01:28.137Z,98778.44
2023-01-19T10:04:06.865Z,98775.38
2023-01-19T10:06:35.042Z,98771.72
2023-01-19T10:09:09.814Z,98774.91
2023-01-19T10:11:52.084Z,98762.81
2023-01-19T10:14:23.121Z,98775.25
2023-01-19T10:16:54.769Z,98774.13
2023-01-19T10:19:25.032Z,98789.75
2023-01-19T10:21:53.277Z,98782.53
2023-01-19T10:24:25.910Z,98767.75
2023-01-19T10:26:54.937Z,98757.25
2023-01-19T10:29:24.042Z,98776.97
2023-01-19T10:31:53.322Z,98753.91
2023-01-19T10:34:23.623Z,98759.28
2023-01-19T10:36:55.363Z,98775.81
2023-01-19T10:39:25.015Z,98771.47
2023-01-19T10:41:54.564Z,98770.75
2023-01-19T10:44:26.369Z,98777.84
2023-01-19T10:46:55.517Z,98777.09
2023-01-19T10:49:28.102Z,98775.69
2023-01-19T10:51:56.989Z,98777.91
2023-01-19T10:54:27.968Z,98787.25
2023-01-19T10:56:58.013Z,98780.94
2023-01-19T10:59:33.394Z,98769.22
2023-01-19T11:02:14.174Z,98782.22
2023-01-19T11:04:45.081Z,98785.53
2023-01-19T11:07:17.933Z,98787.34
2023-01-19T11:09:47.972Z,98785.16
2023-01-19T11:12:23.302Z,98801.03
2023-01-19T11:14:51.785Z,98789.75
2023-01-19T11:17:21.270Z,98801.84
2023-01-19T11:19:57.547Z,98786.56
2023-01-19T11:22:28.375Z,98775.59
2023-01-19T11:25:02.287Z,98794.56
2023-01-19T11:27:32.466Z,98804.69
2023-01-19T11:30:08.084Z,98814.16
2023-01-19T11:32:37.269Z,98816.25
2023-01-19T11:35:20.176Z,98813.94
2023-01-19T11:37:48.387Z,98812.69
2023-01-19T11:40:17.657Z,98812.47
2023-01-19T11:42:47.245Z,98803.69
2023-01-19T11:45:16.622Z,98805.88
2023-01-19T11:47:46.046Z,98800.72
2023-01-19T11:50:16.903Z,98809.84
2023-01-19T11:55:41.583Z,98811.91
2023-01-19T11:58:15.635Z,98832.78
2023-01-19T12:00:45.074Z,98844.06
2023-01-19T12:03:17.325Z,98839.53
2023-01-19T12:05:48.389Z,98827.16
2023-01-19T12:08:18.172Z,98842.25
2023-01-19T12:10:48.568Z,98858.75
2023-01-19T12:13:22.014Z,98851.13
2023-01-19T12:15:51.744Z,98852.50
2023-01-19T12:18:21.285Z,98865.50
2023-01-19T12:20:51.839Z,98869.72
2023-01-19T12:23:25.821Z,98875.44
2023-01-19T12:26:01.224Z,98863.91
2023-01-19T12:28:32.803Z,98868.03
2023-01-19T12:31:01.881Z,98873.25
2023-01-19T12:33:37.999Z,98879.06
2023-01-19T12:36:10.061Z,98883.03
2023-01-19T12:38:42.388Z,98875.22
2023-01-19T12:41:24.592Z,98879.50
2023-01-19T12:44:07.353Z,98881.56
2023-01-19T12:46:38.554Z,98883.50
2023-01-19T12:49:07.465Z,98870.63
2023-01-19T12:51:35.996Z,98872.31
2023-01-19T12:54:06.345Z,98874.94
2023-01-19T12:56:35.777Z,98866.84
2023-01-19T12:59:04.548Z,98862.72
2023-01-19T13:01:33.001Z,98868.88
2023-01-19T13:04:07.005Z,98873.19
2023-01-19T13:06:54.302Z,98872.75
2023-01-19T13:09:30.185Z,98861.81
2023-01-19T13:12:21.519Z,98860.44
2023-01-19T13:14:51.127Z,98855.75
2023-01-19T13:17:31.222Z,98851.00
2023-01-19T13:20:06.069Z,98849.59
2023-01-19T13:22:57.984Z,98858.63
2023-01-19T13:25:29.298Z,98843.09
2023-01-19T13:27:57.680Z,98850.38
2023-01-19T13:30:28.736Z,98856.06
2023-01-19T13:32:58.284Z,98844.47
2023-01-19T13:35:28.771Z,98849.59
2023-01-19T13:37:59.008Z,98840.78
2023-01-19T13:40:39.199Z,98847.03
2023-01-19T13:43:14.516Z,98804.06
2023-01-19T13:45:43.240Z,98838.91
2023-01-19T13:48:17.072Z,98856.59
2023-01-19T13:50:57.751Z,98864.78
2023-01-19T13:53:25.742Z,98876.97
2023-01-19T13:56:10.484Z,98880.69
2023-01-19T13:58:38.498Z,98898.81
2023-01-19T14:01:07.855Z,98892.88
2023-01-19T14:03:36.180Z,98912.13
2023-01-19T14:06:05.822Z,98903.34
2023-01-19T14:08:33.993Z,98903.63
2023-01-19T14:11:03.226Z,98896.16
2023-01-19T14:13:32.715Z,98914.41
2023-01-19T14:16:02.030Z,98907.06
2023-01-19T14:18:31.327Z,98911.47
2023-01-19T14:21:02.044Z,98918.91
2023-01-19T14:23:46.002Z,98922.09
2023-01-19T14:26:32.788Z,98909.09
2023-01-19T14:29:08.275Z,98906.69
2023-01-19T14:31:43.980Z,98904.13
2023-01-19T14:34:27.177Z,98904.78
2023-01-19T14:36:55.328Z,98904.59
2023-01-19T14:39:25.836Z,98908.94
2023-01-19T14:41:54.705Z,98903.00
2023-01-19T14:44:26.527Z,98914.19
2023-01-19T14:46:54.824Z,98919.19
2023-01-19T14:49:27.317Z,98920.31
2023-01-19T14:51:56.148Z,98879.75
2023-01-19T14:54:31.073Z,98913.38
2023-01-19T14:56:59.168Z,98910.84
2023-01-19T14:59:27.216Z,98875.19
2023-01-19T15:01:55.283Z,98871.19
2023-01-19T15:04:23.384Z,98894.91
2023-01-19T15:06:53.820Z,98890.53
2023-01-19T15:09:21.859Z,98893.59
2023-01-19T15:11:51.620Z,98894.63
2023-01-19T15:14:21.125Z,98914.81
2023-01-19T15:16:49.246Z,98905.81
2023-01-19T15:19:18.419Z,98902.19
2023-01-19T15:22:13.273Z,98908.44
2023-01-19T15:24:44.596Z,98920.66
2023-01-19T15:27:14.373Z,98913.09
2023-01-19T15:29:42.387Z,98933.97
2023-01-19T15:32:12.868Z,98924.81
2023-01-19T15:34:41.006Z,98926.19
2023-01-19T15:37:09.162Z,98914.41
2023-01-19T15:39:37.123Z,98899.34
2023-01-19T15:42:05.120Z,98903.84
2023-01-19T15:44:34.501Z,98900.19
2023-01-19T15:47:02.629Z,98887.94
2023-01-19T15:49:31.052Z,98885.59
2023-01-19T15:51:59.149Z,98890.47
2023-01-19T15:54:27.171Z,98874.75
2023-01-19T15:56:55.266Z,98894.47
2023-01-19T15:59:23.838Z,98870.53
2023-01-19T16:01:53.396Z,98873.94
2023-01-19T16:04:21.429Z,98875.53
2023-01-19T16:06:50.164Z,98857.97
2023-01-19T16:09:20.287Z,98856.72
2023-01-19T16:11:48.259Z,98837.75
2023-01-19T16:14:17.562Z,98850.59
2023-01-19T16:16:46.328Z,98850.97
2023-01-19T16:19:16.997Z,98837.44
2023-01-19T16:21:45.124Z,98836.50
2023-01-19T16:24:13.209Z,98818.25
2023-01-19T16:26:41.234Z,98823.50
2023-01-19T16:29:10.958Z,98820.88
2023-01-19T16:31:39.844Z,98833.72
2023-01-19T16:34:08.166Z,98832.44
2023-01-19T16:36:38.479Z,98842.16
2023-01-19T16:39:07.566Z,98840.66
2023-01-19T16:41:36.183Z,98840.22
2023-01-19T16:44:04.592Z,98835.69
2023-01-19T16:46:34.146Z,98827.56
2023-01-19T16:49:03.338Z,98821.31
2023-01-19T16:51:31.728Z,98823.13
2023-01-19T16:54:01.220Z,98832.13
2023-01-19T16:56:29.173Z,98844.00
2023-01-19T16:58:57.983Z,98829.44
2023-01-19T17:01:27.506Z,98832.00
2023-01-19T17:03:56.694Z,98833.53
2023-01-19T17:06:25.144Z,98837.75
2023-01-19T17:08:53.953Z,98833.81
2023-01-19T17:11:25.638Z,98819.69
2023-01-19T17:13:55.344Z,98830.19
2023-01-19T17:16:23.782Z,98827.47
2023-01-19T17:18:51.750Z,98828.06
2023-01-19T17:21:20.153Z,98817.81
2023-01-19T17:23:51.145Z,98813.75
2023-01-19T17:26:19.876Z,98810.56
2023-01-19T17:28:49.540Z,98805.31
2023-01-19T17:31:18.670Z,98823.13
2023-01-19T17:33:47.791Z,98825.94
2023-01-19T17:36:16.947Z,98833.81
2023-01-19T17:38:44.936Z,98827.72
2023-01-19T17:41:13.832Z,98830.91
2023-01-19T17:43:42.083Z,98831.34
2023-01-19T17:46:11.701Z,98819.53
2023-01-19T17:48:40.456Z,98825.75
2023-01-19T17:51:09.973Z,98824.75
2023-01-19T17:53:38.586Z,98825.09
2023-01-19T17:56:07.272Z,98824.59
2023-01-19T17:58:35.373Z,98822.25
2023-01-19T18:01:09.192Z,98838.38
2023-01-19T18:03:38.761Z,98840.50
2023-01-19T18:06:07.171Z,98837.28
2023-01-19T18:08:36.561Z,98835.06
2023-01-19T18:11:04.727Z,98831.63
2023-01-19T18:13:32.973Z,98825.50
2023-01-19T18:16:01.452Z,98826.81
2023-01-19T18:18:29.962Z,98807.84
2023-01-19T18:21:01.324Z,98816.22
2023-01-19T18:23:29.664Z,98819.19
2023-01-19T18:26:00.739Z,98813.97
2023-01-19T18:28:29.257Z,98791.06
2023-01-19T18:30:57.460Z,98800.59
2023-01-19T18:33:25.772Z,98806.09
2023-01-19T18:35:53.708Z,98801.97
2023-01-19T18:38:23.036Z,98786.59
2023-01-19T18:40:51.155Z,98801.09
2023-01-19T18:43:19.186Z,98798.69
2023-01-19T18:45:48.426Z,98797.22
2023-01-19T18:48:17.992Z,98806.97
2023-01-19T18:50:46.098Z,98802.03
2023-01-19T18:55:56.697Z,98781.84
2023-01-19T18:58:28.679Z,98788.22
2023-01-19T19:00:57.665Z,98797.00
2023-01-19T19:03:28.576Z,98792.94
2023-01-19T19:05:56.970Z,98799.91
2023-01-19T19:08:25.384Z,98801.94
2023-01-19T19:10:53.261Z,98810.09
2023-01-19T19:13:23.796Z,98803.84
2023-01-19T19:15:52.770Z,98804.56
2023-01-19T19:18:20.922Z,98809.00
2023-01-19T19:20:48.907Z,98803.47
2023-01-19T19:23:16.889Z,98811.41
2023-01-19T19:25:44.929Z,98820.72
2023-01-19T19:28:12.976Z,98806.16
2023-01-19T19:30:42.486Z,98812.84
2023-01-19T19:33:10.438Z,98816.63
2023-01-19T19:35:38.390Z,98815.16
2023-01-19T19:38:06.463Z,98810.38
2023-01-19T19:40:34.512Z,98807.19
2023-01-19T19:43:03.039Z,98803.97
2023-01-19T19:45:31.100Z,98812.41
2023-01-19T19:48:00.646Z,98803.66
2023-01-19T19:50:28.661Z,98801.84
2023-01-19T19:52:58.864Z,98808.19
2023-01-19T19:55:26.966Z,98821.88
2023-01-19T19:57:55.342Z,98815.66
2023-01-19T20:00:23.411Z,98816.31
2023-01-19T20:02:52.022Z,98816.47
2023-01-19T20:05:21.347Z,98815.81
2023-01-19T20:07:49.350Z,98797.66
2023-01-19T20:10:17.774Z,98803.97
2023-01-19T20:12:45.963Z,98798.72
2023-01-19T20:15:13.988Z,98800.59
2023-01-19T20:17:42.704Z,98798.34
2023-01-19T20:20:11.936Z,98777.84
2023-01-19T20:22:41.904Z,98772.63
2023-01-19T20:25:11.275Z,98765.88
2023-01-19T20:27:39.393Z,98774.31
2023-01-19T20:30:08.229Z,98764.75
2023-01-19T20:32:36.385Z,98756.91
2023-01-19T20:35:05.332Z,98763.06
2023-01-19T20:37:33.611Z,98765.31
2023-01-19T20:40:03.488Z,98767.94
2023-01-19T20:42:31.582Z,98771.94
2023-01-19T20:44:59.545Z,98771.38
2023-01-19T20:47:27.517Z,98764.53
2023-01-19T20:49:55.452Z,98771.00
2023-01-19T20:52:23.730Z,98782.72
2023-01-19T20:54:52.294Z,98780.69
2023-01-19T20:57:22.646Z,98761.41
2023-01-19T20:59:50.709Z,98783.72
2023-01-19T21:02:18.843Z,98781.84
2023-01-19T21:04:46.819Z,98776.69
2023-01-19T21:07:14.885Z,98782.06
2023-01-19T21:09:43.083Z,98756.81
2023-01-19T21:12:11.871Z,98758.84
2023-01-19T21:14:42.557Z,98754.41
2023-01-19T21:17:10.569Z,98776.28
2023-01-19T21:19:38.585Z,98768.31
2023-01-19T21:22:06.735Z,98777.56
2023-01-19T21:24:34.690Z,98759.34
2023-01-19T21:27:02.669Z,98763.47
2023-01-19T21:29:30.769Z,98768.31
2023-01-19T21:32:01.280Z,98778.94
2023-01-19T21:34:29.245Z,98784.09
2023-01-19T21:36:57.294Z,98777.13
2023-01-19T21:39:25.268Z,98783.88
2023-01-19T21:41:53.489Z,98780.34
2023-01-19T21:44:21.697Z,98773.31
2023-01-19T21:46:53.835Z,98779.56
2023-01-19T21:49:23.309Z,98776.94
2023-01-19T21:51:51.578Z,98768.41
2023-01-19T21:54:20.171Z,98762.81
2023-01-19T21:56:48.058Z,98761.31
2023-01-19T21:59:19.680Z,98758.94
2023-01-19T22:01:48.629Z,98769.19
2023-01-19T22:04:16.695Z,98776.38
2023-01-19T22:06:46.188Z,98771.94
2023-01-19T22:09:14.138Z,98763.94
2023-01-19T22:11:42.373Z,98769.19
2023-01-19T22:14:11.546Z,98772.72
2023-01-19T22:16:42.303Z,98761.47
2023-01-19T22:19:16.093Z,98771.94
2023-01-19T22:24:33.924Z,98748.47
2023-01-19T22:27:01.991Z,98773.31
2023-01-19T22:29:30.061Z,98761.34
2023-01-19T22:31:58.086Z,98744.91
2023-01-19T22:34:26.244Z,98737.53
2023-01-19T22:36:54.227Z,98767.75
2023-01-19T22:39:22.259Z,98753.13
2023-01-19T22:41:51.591Z,98745.28
2023-01-19T22:44:21.192Z,98755.56
2023-01-19T22:46:49.885Z,98758.38
2023-01-19T22:49:18.438Z,98771.88
2023-01-19T22:51:46.668Z,98778.91
2023-01-19T22:54:14.782Z,98771.88
2023-01-19T22:56:43.332Z,98772.06
2023-01-19T22:59:12.649Z,98778.56
2023-01-19T23:01:41.711Z,98773.31
2023-01-19T23:04:12.001Z,98776.88
2023-01-19T23:06:40.064Z,98769.69
2023-01-19T23:09:08.927Z,98777.00
2023-01-19T23:11:37.526Z,98784.63
2023-01-19T23:14:07.051Z,98775.28
2023-01-19T23:16:36.599Z,98779.06
2023-01-19T23:19:04.984Z,98778.59
2023-01-19T23:21:33.618Z,98769.69
2023-01-19T23:24:02.280Z,98768.56
2023-01-19T23:26:31.557Z,98771.97
2023-01-19T23:29:00.842Z,98778.59
2023-01-19T23:31:29.753Z,98773.13
2023-01-19T23:34:00.118Z,98771.41
2023-01-19T23:36:29.178Z,98762.28
2023-01-19T23:38:57.837Z,98770.16
2023-01-19T23:41:26.242Z,98775.97
2023-01-19T23:43:54.256Z,98773.91
2023-01-19T23:46:22.535Z,98786.34
2023-01-19T23:48:50.884Z,98781.91
2023-01-19T23:51:21.203Z,98790.69
2023-01-19T23:53:49.501Z,98783.59
2023-01-19T23:56:18.619Z,98781.69
2023-01-19T23:58:47.327Z,98790.34
